createdAt,value
2018-11-23T12:05:05.726Z,9.60
2018-11-23T12:07:33.257Z,9.70
2018-11-23T12:10:00.766Z,10.00
2018-11-23T12:12:28.308Z,10.30
2018-11-23T12:14:55.843Z,10.50
2018-11-23T12:17:23.593Z,10.60
2018-11-23T12:19:51.125Z,10.70
2018-11-23T12:22:18.654Z,10.80
2018-11-23T12:24:46.165Z,10.90
2018-11-23T12:27:13.687Z,11.00
2018-11-23T12:29:41.202Z,11.00
2018-11-23T12:32:08.737Z,11.10
2018-11-23T12:34:36.240Z,11.10
2018-11-23T12:37:04.177Z,11.20
2018-11-23T12:39:31.713Z,11.10
2018-11-23T12:41:59.270Z,11.10
2018-11-23T12:44:26.799Z,11.20
2018-11-23T12:46:54.392Z,11.20
2018-11-23T12:49:21.953Z,11.20
2018-11-23T12:51:49.525Z,11.20
2018-11-23T12:54:17.081Z,11.10
2018-11-23T12:56:44.633Z,11.10
2018-11-23T12:59:12.205Z,11.00
2018-11-23T13:01:39.786Z,10.90
2018-11-23T13:04:07.349Z,10.80
2018-11-23T13:06:34.946Z,10.70
2018-11-23T13:09:02.611Z,10.70
2018-11-23T13:11:37.110Z,10.60
2018-11-23T13:14:05.745Z,10.50
2018-11-23T13:16:50.453Z,10.40
2018-11-23T13:19:18.032Z,10.30
2018-11-23T13:21:45.749Z,10.20
2018-11-23T13:24:13.331Z,10.10
2018-11-23T13:26:40.895Z,10.10
2018-11-23T13:29:15.991Z,10.00
2018-11-23T13:31:36.109Z,9.90
2018-11-23T13:34:03.718Z,9.90
2018-11-23T13:36:31.300Z,9.80
2018-11-23T13:38:58.862Z,9.70
2018-11-23T13:41:26.434Z,9.60
2018-11-23T13:43:54.038Z,9.60
2018-11-23T13:46:21.605Z,9.50
2018-11-23T13:48:49.150Z,9.50
2018-11-23T13:51:16.723Z,9.40
2018-11-23T13:53:44.425Z,9.30
2018-11-23T13:56:11.985Z,9.30
2018-11-23T13:58:39.553Z,9.30
2018-11-23T14:01:07.113Z,9.20
2018-11-23T14:03:34.680Z,9.10
2018-11-23T14:06:02.263Z,9.10
2018-11-23T14:08:29.821Z,9.00
2018-11-23T14:10:57.363Z,8.90
2018-11-23T14:13:24.935Z,8.80
2018-11-23T14:15:52.496Z,8.80
2018-11-23T14:18:20.049Z,8.70
2018-11-23T14:20:47.603Z,8.60
2018-11-23T14:23:15.146Z,8.50
2018-11-23T14:25:42.688Z,8.40
2018-11-23T14:28:10.246Z,8.30
2018-11-23T14:30:37.798Z,8.20
2018-11-23T14:33:05.359Z,8.00
2018-11-23T14:35:33.765Z,7.90
2018-11-23T14:38:01.744Z,7.80
2018-11-23T14:40:29.285Z,7.70
2018-11-23T14:42:57.175Z,7.50
2018-11-23T14:45:34.817Z,7.40
2018-11-23T14:48:05.651Z,7.30
2018-11-23T14:50:34.694Z,7.10
2018-11-23T14:53:02.377Z,7.00
2018-11-23T14:55:30.311Z,6.80
2018-11-23T14:57:58.182Z,6.70
2018-11-23T15:00:34.552Z,6.60
2018-11-23T15:03:03.042Z,6.40
2018-11-23T15:05:30.657Z,6.30
2018-11-23T15:07:58.245Z,6.20
2018-11-23T15:10:27.248Z,6.00
2018-11-23T15:12:56.155Z,5.90
2018-11-23T15:15:26.208Z,5.80
2018-11-23T15:17:54.333Z,5.70
2018-11-23T15:20:28.425Z,5.60
2018-11-23T15:23:00.471Z,5.50
2018-11-23T15:25:28.054Z,5.40
2018-11-23T15:27:55.665Z,5.40
2018-11-23T15:30:24.931Z,5.30
2018-11-23T15:32:52.692Z,5.20
2018-11-23T15:35:20.307Z,5.20
2018-11-23T15:37:47.915Z,5.10
2018-11-23T15:40:18.887Z,5.10
2018-11-23T15:42:47.265Z,5.00
2018-11-23T15:45:16.349Z,5.00
2018-11-23T15:47:43.947Z,4.90
2018-11-23T15:50:16.111Z,4.80
2018-11-23T15:52:44.362Z,4.70
2018-11-23T15:55:15.534Z,4.60
2018-11-23T15:57:43.766Z,4.60
2018-11-23T16:00:17.573Z,4.50
2018-11-23T16:02:45.867Z,4.50
2018-11-23T16:05:13.740Z,4.40
2018-11-23T16:07:41.615Z,4.30
2018-11-23T16:10:18.305Z,4.30
2018-11-23T16:12:47.333Z,4.30
2018-11-23T16:15:15.305Z,4.20
2018-11-23T16:17:42.873Z,4.10
2018-11-23T16:20:14.022Z,4.10
2018-11-23T16:22:42.503Z,4.00
2018-11-23T16:25:10.869Z,3.90
2018-11-23T16:27:39.075Z,3.90
2018-11-23T16:30:13.558Z,3.80
2018-11-23T16:32:41.341Z,3.80
2018-11-23T16:35:08.894Z,3.80
2018-11-23T16:37:36.445Z,3.70
2018-11-23T16:40:06.700Z,3.70
2018-11-23T16:42:34.270Z,3.60
2018-11-23T16:45:01.826Z,3.60
2018-11-23T16:47:32.703Z,3.50
2018-11-23T16:50:00.245Z,3.50
2018-11-23T16:52:27.805Z,3.40
2018-11-23T16:54:55.345Z,3.40
2018-11-23T16:57:22.899Z,3.30
2018-11-23T16:59:50.471Z,3.30
2018-11-23T17:02:18.044Z,3.20
2018-11-23T17:04:45.618Z,3.10
2018-11-23T17:07:13.224Z,3.00
2018-11-23T17:09:40.783Z,3.00
2018-11-23T17:12:08.401Z,2.90
2018-11-23T17:14:35.950Z,2.90
2018-11-23T17:17:03.529Z,2.80
2018-11-23T17:19:46.291Z,2.80
2018-11-23T17:22:13.834Z,2.70
2018-11-23T17:24:41.373Z,2.60
2018-11-23T17:27:08.915Z,2.60
2018-11-23T17:29:36.472Z,2.60
2018-11-23T17:32:04.030Z,2.50
2018-11-23T17:34:31.589Z,2.50
2018-11-23T17:36:59.138Z,2.50
2018-11-23T17:39:26.701Z,2.50
2018-11-23T17:41:54.265Z,2.60
2018-11-23T17:44:21.796Z,2.60
2018-11-23T17:46:49.377Z,2.60
2018-11-23T17:49:16.943Z,2.60
2018-11-23T17:51:44.501Z,2.60
2018-11-23T17:54:12.103Z,2.60
2018-11-23T17:56:39.674Z,2.60
2018-11-23T17:59:07.266Z,2.60
2018-11-23T18:01:34.862Z,2.60
2018-11-23T18:04:02.466Z,2.60
2018-11-23T18:06:30.062Z,2.60
2018-11-23T18:08:57.881Z,2.60
2018-11-23T18:11:25.508Z,2.60
2018-11-23T18:13:53.106Z,2.60
2018-11-23T18:16:20.697Z,2.60
2018-11-23T18:18:48.281Z,2.50
2018-11-23T18:21:15.865Z,2.50
2018-11-23T18:23:43.468Z,2.50
2018-11-23T18:26:11.054Z,2.40
2018-11-23T18:28:38.640Z,2.40
2018-11-23T18:31:06.239Z,2.40
2018-11-23T18:33:33.824Z,2.40
2018-11-23T18:36:01.421Z,2.30
2018-11-23T18:38:28.994Z,2.30
2018-11-23T18:40:56.566Z,2.20
2018-11-23T18:43:24.161Z,2.20
2018-11-23T18:45:51.723Z,2.20
2018-11-23T18:48:19.329Z,2.20
2018-11-23T18:50:46.922Z,2.20
2018-11-23T18:53:14.502Z,2.20
2018-11-23T18:55:42.100Z,2.20
2018-11-23T18:58:09.698Z,2.20
2018-11-23T19:00:37.290Z,2.30
2018-11-23T19:03:05.401Z,2.30
2018-11-23T19:05:32.979Z,2.40
2018-11-23T19:08:00.563Z,2.40
2018-11-23T19:10:28.169Z,2.30
2018-11-23T19:12:55.765Z,2.30
2018-11-23T19:15:25.581Z,2.20
2018-11-23T19:17:51.003Z,2.20
2018-11-23T19:20:21.241Z,2.20
2018-11-23T19:22:51.453Z,2.20
2018-11-23T19:25:19.028Z,2.20
2018-11-23T19:27:46.611Z,2.10
2018-11-23T19:30:16.920Z,2.00
2018-11-23T19:32:44.534Z,2.00
2018-11-23T19:35:12.157Z,1.90
2018-11-23T19:37:39.711Z,1.80
2018-11-23T19:40:11.240Z,1.70
2018-11-23T19:43:00.253Z,1.70
2018-11-23T19:45:27.843Z,1.60
2018-11-23T19:48:09.022Z,1.60
2018-11-23T19:50:36.600Z,1.70
2018-11-23T19:53:04.189Z,1.70
2018-11-23T19:55:38.172Z,1.70
2018-11-23T19:58:05.763Z,1.80
2018-11-23T20:00:33.373Z,1.80
2018-11-23T20:03:00.952Z,1.90
2018-11-23T20:05:28.545Z,1.90
2018-11-23T20:07:56.699Z,1.90
2018-11-23T20:10:24.965Z,2.00
2018-11-23T20:12:54.721Z,2.00
2018-11-23T20:15:22.325Z,2.00
2018-11-23T20:17:49.892Z,2.00
2018-11-23T20:20:17.757Z,2.00
2018-11-23T20:22:46.733Z,2.00
2018-11-23T20:25:15.771Z,2.00
2018-11-23T20:27:44.131Z,2.00
2018-11-23T20:30:16.019Z,2.00
2018-11-23T20:32:43.666Z,2.00
2018-11-23T20:35:13.698Z,2.10
2018-11-23T20:37:41.276Z,2.10
2018-11-23T20:40:14.665Z,2.10
2018-11-23T20:42:42.229Z,2.20
2018-11-23T20:45:10.959Z,2.20
2018-11-23T20:47:38.602Z,2.20
2018-11-23T20:50:09.166Z,2.20
2018-11-23T20:52:36.731Z,2.20
2018-11-23T20:55:06.905Z,2.10
2018-11-23T20:57:34.505Z,2.10
2018-11-23T21:00:02.632Z,2.00
2018-11-23T21:02:30.253Z,2.00
2018-11-23T21:04:57.827Z,2.00
2018-11-23T21:07:25.407Z,2.00
2018-11-23T21:09:52.997Z,1.90
2018-11-23T21:12:20.587Z,1.90
2018-11-23T21:14:48.176Z,1.80
2018-11-23T21:17:15.798Z,1.70
2018-11-23T21:22:51.069Z,1.70
2018-11-23T21:25:18.637Z,1.60
2018-11-23T21:27:46.211Z,1.70
2018-11-23T21:30:15.599Z,1.70
2018-11-23T21:32:43.226Z,1.60
2018-11-23T21:35:11.624Z,1.60
2018-11-23T21:37:39.229Z,1.70
2018-11-23T21:40:11.366Z,1.70
2018-11-23T21:42:38.989Z,1.80
2018-11-23T21:45:27.507Z,1.80
2018-11-23T21:47:55.070Z,1.90
2018-11-23T21:50:25.544Z,1.90
2018-11-23T21:52:50.247Z,1.90
2018-11-23T21:55:21.291Z,1.80
2018-11-23T21:57:49.357Z,1.80
2018-11-23T22:00:16.945Z,1.80
2018-11-23T22:02:44.520Z,1.80
2018-11-23T22:05:12.170Z,1.70
2018-11-23T22:10:49.776Z,1.60
2018-11-23T22:13:17.445Z,1.50
2018-11-23T22:15:45.155Z,1.50
2018-11-23T22:18:12.742Z,1.40
2018-11-23T22:20:40.345Z,1.40
2018-11-23T22:23:07.905Z,1.30
2018-11-23T22:25:35.493Z,1.30
2018-11-23T22:28:03.061Z,1.30
2018-11-23T22:30:30.897Z,1.20
2018-11-23T22:33:27.098Z,1.20
2018-11-23T22:35:54.673Z,1.20
2018-11-23T22:41:24.299Z,1.10
2018-11-23T22:43:51.870Z,1.20
2018-11-23T22:46:19.455Z,1.20
2018-11-23T22:48:47.081Z,1.30
2018-11-23T22:51:14.663Z,1.40
2018-11-23T22:53:42.225Z,1.50
2018-11-23T22:56:09.815Z,1.60
2018-11-23T22:58:37.382Z,1.60
2018-11-23T23:01:31.905Z,1.60
2018-11-23T23:03:59.474Z,1.60
2018-11-23T23:06:27.045Z,1.50
2018-11-23T23:08:54.617Z,1.40
2018-11-23T23:11:22.196Z,1.40
2018-11-23T23:13:49.756Z,1.40
2018-11-23T23:16:17.326Z,1.40
2018-11-23T23:18:44.885Z,1.30
2018-11-23T23:21:12.470Z,1.30
2018-11-23T23:23:40.034Z,1.20
2018-11-23T23:26:07.629Z,1.20
2018-11-23T23:28:35.226Z,1.20
2018-11-23T23:31:02.807Z,1.10
2018-11-23T23:33:30.385Z,1.10
2018-11-23T23:35:57.971Z,1.10
2018-11-23T23:38:25.534Z,1.10
2018-11-23T23:40:53.101Z,1.10
2018-11-23T23:43:20.658Z,1.10
2018-11-23T23:45:55.459Z,1.00
2018-11-23T23:48:23.032Z,1.00
2018-11-23T23:50:50.593Z,1.00
2018-11-23T23:53:18.142Z,1.00
2018-11-23T23:55:45.705Z,1.10
2018-11-23T23:58:13.245Z,1.10
